PWSweather.com
Personal Weather Stations
Station Observations
JOE4SPEED
Jupiter, Fl, Jupiter, FL 33458

Jupiter, FlJupiter, FL 33458

Lat: 26.9373, Lon: -80.1101

Elevation: 12

Station Type: Davis VP 2

http://www.joe4speed.com/wxindex.php

Latest ConditionsUpdated 9:10:15 PM EDT Wednesday, Apr 1, 2015
Currently Today's Max Today's Min Today's Average
Temperature 72.9°F22.7°C 83.4°F28.6°C 64.3°F17.9°C 73.1°F22.8°C
Dew Point 62.6°F17.0°C 65.7°F18.7°C 60.1°F15.6°C 62.4°F16.9°C
Winds Calm Calm 3.8 mph SSW6.1 kmh SSW - 0.4 mph 0.6 kmh
Wind Gusts -- 6.0 mph9.7 kmh - -
Humidity 70% 90% 48% 71%
Pressure 30.10 in1019.3 mb 30.16 in1021.3 mb 30.05 in1017.6 mb -
Hour Temp Dew Point Humidity Winds Wind Gusts Pressure Precip Precip Rate Daily Precip Total
09:10 PM 72.9°F22.7°C 62.6°F17.0°C 70% Calm Calm -- 30.10 in1019.3 mb - 0.00 in0.0 mm 0.00 in0.0 mm
09:00 PM 73.2°F22.9°C 62.8°F17.1°C 70% Calm Calm -- 30.09 in1019.0 mb - 0.00 in0.0 mm 0.00 in0.0 mm
08:50 PM 73.3°F22.9°C 62.5°F16.9°C 69% Calm Calm -- 30.09 in1019.0 mb - 0.00 in0.0 mm 0.00 in0.0 mm
08:40 PM 73.7°F23.2°C 62.9°F17.2°C 69% Calm Calm -- 30.09 in1019.0 mb - 0.00 in0.0 mm 0.00 in0.0 mm
08:30 PM 73.9°F23.3°C 62.7°F17.1°C 68% Calm Calm -- 30.09 in1019.0 mb - 0.00 in0.0 mm 0.00 in0.0 mm
08:20 PM 74.1°F23.4°C 62.9°F17.2°C 68% Calm Calm -- 30.09 in1019.0 mb - 0.00 in0.0 mm 0.00 in0.0 mm
08:10 PM 74.3°F23.5°C 62.6°F17.0°C 67% Calm Calm -- 30.09 in1019.0 mb - 0.00 in0.0 mm 0.00 in0.0 mm
08:00 PM 74.5°F23.6°C 62.8°F17.1°C 67% Calm Calm -- 30.08 in1018.6 mb - 0.00 in0.0 mm 0.00 in0.0 mm
07:50 PM 74.9°F23.8°C 62.8°F17.1°C 66% Calm Calm -- 30.08 in1018.6 mb - 0.00 in0.0 mm 0.00 in0.0 mm
07:40 PM 75.2°F24.0°C 63.1°F17.3°C 66% Calm Calm -- 30.08 in1018.6 mb - 0.00 in0.0 mm 0.00 in0.0 mm
07:30 PM 75.6°F24.2°C 63.0°F17.2°C 65% Calm Calm -- 30.08 in1018.6 mb - 0.00 in0.0 mm 0.00 in0.0 mm
07:20 PM 75.9°F24.4°C 62.8°F17.1°C 64% Calm Calm -- 30.08 in1018.6 mb - 0.00 in0.0 mm 0.00 in0.0 mm
07:10 PM 76.3°F24.6°C 62.8°F17.1°C 63% Calm Calm -- 30.07 in1018.3 mb - 0.00 in0.0 mm 0.00 in0.0 mm
07:00 PM 76.8°F24.9°C 62.8°F17.1°C 62% Calm Calm -- 30.07 in1018.3 mb - 0.00 in0.0 mm 0.00 in0.0 mm
06:50 PM 77.2°F25.1°C 62.7°F17.1°C 61% Calm Calm -- 30.06 in1017.9 mb - 0.00 in0.0 mm 0.00 in0.0 mm
06:40 PM 77.5°F25.3°C 63.0°F17.2°C 61% Calm Calm -- 30.07 in1018.3 mb - 0.00 in0.0 mm 0.00 in0.0 mm
06:30 PM 77.6°F25.3°C 62.1°F16.7°C 59% Calm Calm -- 30.06 in1017.9 mb - 0.00 in0.0 mm 0.00 in0.0 mm
06:20 PM 78.0°F25.6°C 62.5°F16.9°C 59% Calm Calm -- 30.06 in1017.9 mb - 0.00 in0.0 mm 0.00 in0.0 mm
06:10 PM 77.9°F25.5°C 61.9°F16.6°C 58% Calm Calm -- 30.06 in1017.9 mb - 0.00 in0.0 mm 0.00 in0.0 mm
06:00 PM 78.1°F25.6°C 62.1°F16.7°C 58% Calm Calm -- 30.06 in1017.9 mb - 0.00 in0.0 mm 0.00 in0.0 mm
05:50 PM 78.1°F25.6°C 62.6°F17.0°C 59% Calm Calm -- 30.06 in1017.9 mb - 0.00 in0.0 mm 0.00 in0.0 mm
05:40 PM 78.4°F25.8°C 62.4°F16.9°C 58% Calm Calm -- 30.06 in1017.9 mb - 0.00 in0.0 mm 0.00 in0.0 mm
05:30 PM 78.8°F26.0°C 62.3°F16.8°C 57% Calm Calm -- 30.05 in1017.6 mb - 0.00 in0.0 mm 0.00 in0.0 mm
05:20 PM 79.1°F26.2°C 62.1°F16.7°C 56% Calm Calm -- 30.05 in1017.6 mb - 0.00 in0.0 mm 0.00 in0.0 mm
05:10 PM 79.2°F26.2°C 62.1°F16.7°C 56% Calm Calm -- 30.05 in1017.6 mb - 0.00 in0.0 mm 0.00 in0.0 mm
05:00 PM 78.9°F26.1°C 61.9°F16.6°C 56% Calm Calm -- 30.05 in1017.6 mb - 0.00 in0.0 mm 0.00 in0.0 mm
04:50 PM 80.0°F26.7°C 61.9°F16.6°C 54% Calm Calm -- 30.05 in1017.6 mb - 0.00 in0.0 mm 0.00 in0.0 mm
04:40 PM 80.5°F26.9°C 62.8°F17.1°C 55% Calm Calm -- 30.05 in1017.6 mb - 0.00 in0.0 mm 0.00 in0.0 mm
04:30 PM 80.3°F26.8°C 63.1°F17.3°C 56% Calm Calm -- 30.06 in1017.9 mb - 0.00 in0.0 mm 0.00 in0.0 mm
04:20 PM 79.2°F26.2°C 63.7°F17.6°C 59% Calm Calm -- 30.06 in1017.9 mb - 0.00 in0.0 mm 0.00 in0.0 mm
04:10 PM 80.0°F26.7°C 62.9°F17.2°C 56% Calm Calm -- 30.06 in1017.9 mb - 0.00 in0.0 mm 0.00 in0.0 mm
04:00 PM 80.8°F27.1°C 63.6°F17.6°C 56% Calm Calm -- 30.07 in1018.3 mb - 0.00 in0.0 mm 0.00 in0.0 mm
03:50 PM 80.2°F26.8°C 63.1°F17.3°C 56% Calm Calm -- 30.07 in1018.3 mb - 0.00 in0.0 mm 0.00 in0.0 mm
03:40 PM 82.0°F27.8°C 63.7°F17.6°C 54% Calm Calm -- 30.07 in1018.3 mb - 0.00 in0.0 mm 0.00 in0.0 mm
03:30 PM 81.8°F27.7°C 64.0°F17.8°C 55% Calm Calm -- 30.07 in1018.3 mb - 0.00 in0.0 mm 0.00 in0.0 mm
03:20 PM 82.1°F27.8°C 64.3°F17.9°C 55% Calm Calm -- 30.08 in1018.6 mb - 0.00 in0.0 mm 0.00 in0.0 mm
03:10 PM 81.3°F27.4°C 64.1°F17.8°C 56% Calm Calm -- 30.08 in1018.6 mb - 0.00 in0.0 mm 0.00 in0.0 mm
03:00 PM 81.4°F27.4°C 63.1°F17.3°C 54% Calm Calm -- 30.09 in1019.0 mb - 0.00 in0.0 mm 0.00 in0.0 mm
02:50 PM 81.1°F27.3°C 63.4°F17.4°C 55% Calm Calm -- 30.09 in1019.0 mb - 0.00 in0.0 mm 0.00 in0.0 mm
02:40 PM 81.1°F27.3°C 62.9°F17.2°C 54% Calm Calm -- 30.09 in1019.0 mb - 0.00 in0.0 mm 0.00 in0.0 mm
02:30 PM 81.6°F27.6°C 64.8°F18.2°C 57% Calm Calm -- 30.10 in1019.3 mb - 0.00 in0.0 mm 0.00 in0.0 mm
02:20 PM 80.7°F27.1°C 63.6°F17.6°C 56% Calm Calm -- 30.11 in1019.6 mb - 0.00 in0.0 mm 0.00 in0.0 mm
02:10 PM 81.5°F27.5°C 63.2°F17.3°C 54% Calm Calm -- 30.11 in1019.6 mb - 0.00 in0.0 mm 0.00 in0.0 mm
02:00 PM 78.7°F25.9°C 63.1°F17.3°C 59% Calm Calm -- 30.12 in1020.0 mb - 0.00 in0.0 mm 0.00 in0.0 mm
01:50 PM 79.8°F26.6°C 63.7°F17.6°C 58% Calm Calm -- 30.12 in1020.0 mb - 0.00 in0.0 mm 0.00 in0.0 mm
01:40 PM 79.9°F26.6°C 62.8°F17.1°C 56% Calm Calm -- 30.12 in1020.0 mb - 0.00 in0.0 mm 0.00 in0.0 mm
01:30 PM 83.4°F28.6°C 62.8°F17.1°C 50% Calm Calm -- 30.12 in1020.0 mb - 0.00 in0.0 mm 0.00 in0.0 mm
01:20 PM 82.9°F28.3°C 61.2°F16.2°C 48% Calm Calm -- 30.12 in1020.0 mb - 0.00 in0.0 mm 0.00 in0.0 mm
01:10 PM 81.1°F27.3°C 60.7°F15.9°C 50% Calm Calm -- 30.13 in1020.3 mb - 0.00 in0.0 mm 0.00 in0.0 mm
01:00 PM 82.1°F27.8°C 60.5°F15.8°C 48% Calm Calm -- 30.14 in1020.7 mb - 0.00 in0.0 mm 0.00 in0.0 mm
12:50 PM 82.5°F28.1°C 62.0°F16.7°C 50% Calm Calm -- 30.14 in1020.7 mb - 0.00 in0.0 mm 0.00 in0.0 mm
12:40 PM 82.0°F27.8°C 62.6°F17.0°C 52% Calm Calm -- 30.14 in1020.7 mb - 0.00 in0.0 mm 0.00 in0.0 mm
12:30 PM 79.4°F26.3°C 61.3°F16.3°C 54% Calm Calm -- 30.15 in1021.0 mb - 0.00 in0.0 mm 0.00 in0.0 mm
12:20 PM 80.6°F27.0°C 62.9°F17.2°C 55% Calm Calm -- 30.15 in1021.0 mb - 0.00 in0.0 mm 0.00 in0.0 mm
12:10 PM 80.0°F26.7°C 63.4°F17.4°C 57% Calm Calm -- 30.15 in1021.0 mb - 0.00 in0.0 mm 0.00 in0.0 mm
12:00 PM 82.3°F27.9°C 63.5°F17.5°C 53% Calm Calm -- 30.15 in1021.0 mb - 0.00 in0.0 mm 0.00 in0.0 mm
11:50 AM 79.7°F26.5°C 63.7°F17.6°C 58% Calm Calm -- 30.16 in1021.3 mb - 0.00 in0.0 mm 0.00 in0.0 mm
11:40 AM 79.3°F26.3°C 64.7°F18.2°C 61% Calm Calm -- 30.16 in1021.3 mb - 0.00 in0.0 mm 0.00 in0.0 mm
11:30 AM 78.6°F25.9°C 63.5°F17.5°C 60% Calm Calm -- 30.16 in1021.3 mb - 0.00 in0.0 mm 0.00 in0.0 mm
11:20 AM 77.4°F25.2°C 64.2°F17.9°C 64% Calm Calm -- 30.16 in1021.3 mb - 0.00 in0.0 mm 0.00 in0.0 mm
11:10 AM 78.1°F25.6°C 64.5°F18.1°C 63% Calm Calm -- 30.16 in1021.3 mb - 0.00 in0.0 mm 0.00 in0.0 mm
11:00 AM 76.8°F24.9°C 63.7°F17.6°C 64% Calm Calm -- 30.16 in1021.3 mb - 0.00 in0.0 mm 0.00 in0.0 mm
10:50 AM 77.0°F25.0°C 63.5°F17.5°C 63% Calm Calm -- 30.16 in1021.3 mb - 0.00 in0.0 mm 0.00 in0.0 mm
10:40 AM 76.4°F24.7°C 63.8°F17.7°C 65% Calm Calm -- 30.16 in1021.3 mb - 0.00 in0.0 mm 0.00 in0.0 mm
10:30 AM 76.2°F24.6°C 64.9°F18.3°C 68% Calm Calm -- 30.16 in1021.3 mb - 0.00 in0.0 mm 0.00 in0.0 mm
10:20 AM 75.5°F24.2°C 64.2°F17.9°C 68% Calm Calm -- 30.16 in1021.3 mb - 0.00 in0.0 mm 0.00 in0.0 mm
10:10 AM 75.0°F23.9°C 65.4°F18.6°C 72% Calm Calm -- 30.16 in1021.3 mb - 0.00 in0.0 mm 0.00 in0.0 mm
10:00 AM 73.8°F23.2°C 64.2°F17.9°C 72% Calm Calm -- 30.16 in1021.3 mb - 0.00 in0.0 mm 0.00 in0.0 mm
09:50 AM 73.0°F22.8°C 64.6°F18.1°C 75% Calm Calm -- 30.16 in1021.3 mb - 0.00 in0.0 mm 0.00 in0.0 mm
09:40 AM 72.5°F22.5°C 64.9°F18.3°C 77% Calm Calm -- 30.15 in1021.0 mb - 0.00 in0.0 mm 0.00 in0.0 mm
09:30 AM 71.8°F22.1°C 65.6°F18.7°C 81% Calm Calm -- 30.15 in1021.0 mb - 0.00 in0.0 mm 0.00 in0.0 mm
09:20 AM 70.4°F21.3°C 65.7°F18.7°C 85% Calm Calm -- 30.14 in1020.7 mb - 0.00 in0.0 mm 0.00 in0.0 mm
09:10 AM 69.2°F20.7°C 65.2°F18.4°C 87% Calm Calm -- 30.14 in1020.7 mb - 0.00 in0.0 mm 0.00 in0.0 mm
09:00 AM 68.7°F20.4°C 65.4°F18.6°C 89% Calm Calm -- 30.14 in1020.7 mb - 0.00 in0.0 mm 0.00 in0.0 mm
08:50 AM 67.7°F19.8°C 64.6°F18.1°C 90% Calm Calm -- 30.13 in1020.3 mb - 0.00 in0.0 mm 0.00 in0.0 mm
08:40 AM 67.0°F19.4°C 64.0°F17.8°C 90% Calm Calm -- 30.13 in1020.3 mb - 0.00 in0.0 mm 0.00 in0.0 mm
08:30 AM 66.6°F19.2°C 63.6°F17.6°C 90% Calm Calm -- 30.13 in1020.3 mb - 0.00 in0.0 mm 0.00 in0.0 mm
08:20 AM 66.1°F18.9°C 63.1°F17.3°C 90% 0.1 mph SSW0.2 kmh SSW -- 30.13 in1020.3 mb - 0.00 in0.0 mm 0.00 in0.0 mm
08:10 AM 65.6°F18.7°C 62.6°F17.0°C 90% Calm Calm -- 30.13 in1020.3 mb - 0.00 in0.0 mm 0.00 in0.0 mm
08:00 AM 65.1°F18.4°C 62.1°F16.7°C 90% Calm Calm -- 30.13 in1020.3 mb - 0.00 in0.0 mm 0.00 in0.0 mm
07:50 AM 64.4°F18.0°C 61.4°F16.3°C 90% Calm Calm -- 30.12 in1020.0 mb - 0.00 in0.0 mm 0.00 in0.0 mm
07:40 AM 64.4°F18.0°C 61.0°F16.1°C 89% Calm Calm -- 30.12 in1020.0 mb - 0.00 in0.0 mm 0.00 in0.0 mm
07:30 AM 64.3°F17.9°C 61.0°F16.1°C 89% Calm Calm -- 30.12 in1020.0 mb - 0.00 in0.0 mm 0.00 in0.0 mm
07:20 AM 64.4°F18.0°C 61.1°F16.2°C 89% Calm Calm -- 30.11 in1019.6 mb - 0.00 in0.0 mm 0.00 in0.0 mm
07:10 AM 64.5°F18.1°C 61.2°F16.2°C 89% Calm Calm -- 30.11 in1019.6 mb - 0.00 in0.0 mm 0.00 in0.0 mm
07:00 AM 64.7°F18.2°C 61.4°F16.3°C 89% Calm Calm -- 30.11 in1019.6 mb - 0.00 in0.0 mm 0.00 in0.0 mm
06:50 AM 64.9°F18.3°C 61.6°F16.4°C 89% Calm Calm -- 30.10 in1019.3 mb - 0.00 in0.0 mm 0.00 in0.0 mm
06:40 AM 65.1°F18.4°C 61.5°F16.4°C 88% Calm Calm -- 30.10 in1019.3 mb - 0.00 in0.0 mm 0.00 in0.0 mm
06:30 AM 65.3°F18.5°C 62.0°F16.7°C 89% Calm Calm -- 30.10 in1019.3 mb - 0.00 in0.0 mm 0.00 in0.0 mm
06:20 AM 65.2°F18.4°C 61.6°F16.4°C 88% Calm Calm -- 30.09 in1019.0 mb - 0.00 in0.0 mm 0.00 in0.0 mm
06:10 AM 65.3°F18.5°C 61.7°F16.5°C 88% Calm Calm -- 30.09 in1019.0 mb - 0.00 in0.0 mm 0.00 in0.0 mm
06:00 AM 65.5°F18.6°C 61.9°F16.6°C 88% 0.2 mph WNW0.3 kmh WNW 2.0 mph3.2 kmh 30.09 in1019.0 mb - 0.00 in0.0 mm 0.00 in0.0 mm
05:50 AM 65.6°F18.7°C 62.0°F16.7°C 88% 0.5 mph NW0.8 kmh NW 2.0 mph3.2 kmh 30.09 in1019.0 mb - 0.00 in0.0 mm 0.00 in0.0 mm
05:40 AM 65.8°F18.8°C 62.1°F16.7°C 88% 1.3 mph NW2.1 kmh NW 5.0 mph8.0 kmh 30.09 in1019.0 mb - 0.00 in0.0 mm 0.00 in0.0 mm
05:30 AM 65.9°F18.8°C 62.0°F16.7°C 87% 2.8 mph NW4.5 kmh NW 4.0 mph6.4 kmh 30.09 in1019.0 mb - 0.00 in0.0 mm 0.00 in0.0 mm
05:20 AM 66.1°F18.9°C 62.1°F16.7°C 87% 3.7 mph NW6.0 kmh NW 6.0 mph9.7 kmh 30.09 in1019.0 mb - 0.00 in0.0 mm 0.00 in0.0 mm
05:10 AM 66.1°F18.9°C 62.1°F16.7°C 87% 1.2 mph WNW1.9 kmh WNW 2.0 mph3.2 kmh 30.09 in1019.0 mb - 0.00 in0.0 mm 0.00 in0.0 mm
05:00 AM 65.9°F18.8°C 61.9°F16.6°C 87% 0.8 mph WNW1.3 kmh WNW 2.0 mph3.2 kmh 30.09 in1019.0 mb - 0.00 in0.0 mm 0.00 in0.0 mm
04:50 AM 65.8°F18.8°C 61.8°F16.6°C 87% 1.2 mph WNW1.9 kmh WNW 4.0 mph6.4 kmh 30.08 in1018.6 mb - 0.00 in0.0 mm 0.00 in0.0 mm
04:40 AM 65.7°F18.7°C 61.4°F16.3°C 86% 1.6 mph WNW2.6 kmh WNW 6.0 mph9.7 kmh 30.09 in1019.0 mb - 0.00 in0.0 mm 0.00 in0.0 mm
04:30 AM 65.6°F18.7°C 61.3°F16.3°C 86% 0.2 mph NW0.3 kmh NW -- 30.09 in1019.0 mb - 0.00 in0.0 mm 0.00 in0.0 mm
04:20 AM 65.5°F18.6°C 60.8°F16.0°C 85% 0.8 mph WNW1.3 kmh WNW 2.0 mph3.2 kmh 30.09 in1019.0 mb - 0.00 in0.0 mm 0.00 in0.0 mm
04:10 AM 65.5°F18.6°C 60.9°F16.1°C 85% Calm Calm -- 30.08 in1018.6 mb - 0.00 in0.0 mm 0.00 in0.0 mm
04:00 AM 65.7°F18.7°C 61.1°F16.2°C 85% 0.5 mph WSW0.8 kmh WSW 1.0 mph1.6 kmh 30.09 in1019.0 mb - 0.00 in0.0 mm 0.00 in0.0 mm
03:50 AM 65.8°F18.8°C 60.8°F16.0°C 84% Calm Calm -- 30.09 in1019.0 mb - 0.00 in0.0 mm 0.00 in0.0 mm
03:40 AM 65.8°F18.8°C 60.9°F16.1°C 84% Calm Calm -- 30.09 in1019.0 mb - 0.00 in0.0 mm 0.00 in0.0 mm
03:30 AM 66.1°F18.9°C 61.1°F16.2°C 84% 0.3 mph WSW0.5 kmh WSW 3.0 mph4.8 kmh 30.08 in1018.6 mb - 0.00 in0.0 mm 0.00 in0.0 mm
03:20 AM 66.2°F19.0°C 60.9°F16.1°C 83% 0.8 mph WSW1.3 kmh WSW 1.0 mph1.6 kmh 30.08 in1018.6 mb - 0.00 in0.0 mm 0.00 in0.0 mm
03:10 AM 66.5°F19.2°C 61.1°F16.2°C 83% 1.3 mph WSW2.1 kmh WSW 3.0 mph4.8 kmh 30.08 in1018.6 mb - 0.00 in0.0 mm 0.00 in0.0 mm
03:00 AM 66.6°F19.2°C 60.9°F16.1°C 82% 1.5 mph SW2.4 kmh SW 4.0 mph6.4 kmh 30.09 in1019.0 mb - 0.00 in0.0 mm 0.00 in0.0 mm
02:50 AM 66.7°F19.3°C 61.1°F16.2°C 82% 0.8 mph S1.3 kmh S 2.0 mph3.2 kmh 30.09 in1019.0 mb - 0.00 in0.0 mm 0.00 in0.0 mm
02:40 AM 66.9°F19.4°C 60.9°F16.1°C 81% 0.3 mph SW0.5 kmh SW 2.0 mph3.2 kmh 30.09 in1019.0 mb - 0.00 in0.0 mm 0.00 in0.0 mm
02:30 AM 67.2°F19.6°C 60.8°F16.0°C 80% 0.2 mph SSW0.3 kmh SSW 2.0 mph3.2 kmh 30.09 in1019.0 mb - 0.00 in0.0 mm 0.00 in0.0 mm
02:20 AM 67.5°F19.7°C 61.1°F16.2°C 80% 1.2 mph S1.9 kmh S 3.0 mph4.8 kmh 30.09 in1019.0 mb - 0.00 in0.0 mm 0.00 in0.0 mm
02:10 AM 67.6°F19.8°C 60.9°F16.1°C 79% 0.8 mph WSW1.3 kmh WSW 4.0 mph6.4 kmh 30.09 in1019.0 mb - 0.00 in0.0 mm 0.00 in0.0 mm
02:00 AM 67.9°F19.9°C 61.1°F16.2°C 79% 0.5 mph SW0.8 kmh SW 5.0 mph8.0 kmh 30.10 in1019.3 mb - 0.00 in0.0 mm 0.00 in0.0 mm
01:50 AM 68.1°F20.1°C 61.0°F16.1°C 78% 1.0 mph SW1.6 kmh SW 1.0 mph1.6 kmh 30.09 in1019.0 mb - 0.00 in0.0 mm 0.00 in0.0 mm
01:40 AM 68.3°F20.2°C 61.2°F16.2°C 78% 0.6 mph WSW1.0 kmh WSW 1.0 mph1.6 kmh 30.10 in1019.3 mb - 0.00 in0.0 mm 0.00 in0.0 mm
01:30 AM 68.4°F20.2°C 60.9°F16.1°C 77% 1.4 mph W2.3 kmh W 3.0 mph4.8 kmh 30.10 in1019.3 mb - 0.00 in0.0 mm 0.00 in0.0 mm
01:20 AM 68.6°F20.3°C 60.7°F15.9°C 76% 2.1 mph SW3.4 kmh SW 2.0 mph3.2 kmh 30.10 in1019.3 mb - 0.00 in0.0 mm 0.00 in0.0 mm
01:10 AM 68.8°F20.4°C 60.5°F15.8°C 75% 0.9 mph SW1.4 kmh SW 2.0 mph3.2 kmh 30.10 in1019.3 mb - 0.00 in0.0 mm 0.00 in0.0 mm
01:00 AM 68.9°F20.5°C 60.6°F15.9°C 75% 1.7 mph SW2.7 kmh SW 4.0 mph6.4 kmh 30.09 in1019.0 mb - 0.00 in0.0 mm 0.00 in0.0 mm
12:50 AM 69.0°F20.6°C 60.7°F15.9°C 75% 2.6 mph SW4.2 kmh SW 6.0 mph9.7 kmh 30.10 in1019.3 mb - 0.00 in0.0 mm 0.00 in0.0 mm
12:40 AM 68.9°F20.5°C 60.6°F15.9°C 75% 3.0 mph SW4.8 kmh SW 6.0 mph9.7 kmh 30.11 in1019.6 mb - 0.00 in0.0 mm 0.00 in0.0 mm
12:30 AM 68.5°F20.3°C 60.3°F15.7°C 75% 2.2 mph SSW3.5 kmh SSW 4.0 mph6.4 kmh 30.10 in1019.3 mb - 0.00 in0.0 mm 0.00 in0.0 mm
12:20 AM 68.3°F20.2°C 60.4°F15.8°C 76% 3.4 mph S5.5 kmh S 5.0 mph8.0 kmh 30.11 in1019.6 mb - 0.00 in0.0 mm 0.00 in0.0 mm
12:10 AM 68.2°F20.1°C 60.3°F15.7°C 76% 3.0 mph S4.8 kmh S 4.0 mph6.4 kmh 30.11 in1019.6 mb - 0.00 in0.0 mm 0.00 in0.0 mm
12:00 AM 67.9°F19.9°C 60.1°F15.6°C 76% 3.8 mph SSW6.1 kmh SSW 5.0 mph8.0 kmh 30.11 in1019.6 mb - 0.00 in0.0 mm 0.00 in0.0 mm